Time;durP1;ratioP1;P1;durP2;ratioP2;P2;SDS_P1;SDS_P2;PMS_P1;PMS_P2;Temp;Humidity;BMP_temperature;BMP_pressure;BME280_temperature;BME280_humidity;BME280_pressure;Samples;Min_cycle;Max_cycle;Signal;HPM_P1;HPM_P2
2022/08/25 00:02:00;;;;;;;6.03;3.42;;;;;;;;;;5111797;27;20400;-72
2022/08/25 00:04:28;;;;;;;9.52;3.92;;;;;;;;;;5110820;28;20034;-72
2022/08/25 00:06:54;;;;;;;5.97;3.08;;;;;;;;;;5109895;28;20472;-72
2022/08/25 00:09:55;;;;;;;7.50;3.30;;;;;;;;;;5111247;27;20381;-72
2022/08/25 00:14:22;;;;;;;7.40;3.67;;;;;;;;;;5111646;27;20392;-72
2022/08/25 00:18:30;;;;;;;7.43;3.67;;;;;;;;;;5111332;27;20389;-73
2022/08/25 00:23:52;;;;;;;8.32;3.92;;;;;;;;;;5111041;27;20540;-72
2022/08/25 00:26:18;;;;;;;7.78;3.70;;;;;;;;;;5111234;28;20032;-73
2022/08/25 00:28:45;;;;;;;9.60;4.13;;;;;;;;;;5111207;28;20085;-72
2022/08/25 00:31:13;;;;;;;6.88;3.50;;;;;;;;;;5110834;28;20028;-72
2022/08/25 00:33:39;;;;;;;8.25;4.15;;;;;;;;;;5111128;28;20046;-72
2022/08/25 00:37:15;;;;;;;7.70;4.05;;;;;;;;;;5111571;27;20392;-72
2022/08/25 00:39:41;;;;;;;6.28;3.38;;;;;;;;;;5110867;28;20034;-72
2022/08/25 00:42:08;;;;;;;6.47;3.80;;;;;;;;;;5111216;28;20066;-73
2022/08/25 00:44:34;;;;;;;5.63;3.40;;;;;;;;;;5110861;28;20055;-72
2022/08/25 00:47:01;;;;;;;7.00;3.72;;;;;;;;;;5111054;28;20381;-73
2022/08/25 00:49:39;;;;;;;7.55;3.60;;;;;;;;;;5111342;28;20024;-72
2022/08/25 00:53:04;;;;;;;8.40;3.95;;;;;;;;;;5111199;27;20397;-73
2022/08/25 00:55:51;;;;;;;7.25;3.65;;;;;;;;;;5110296;27;20395;-74
2022/08/25 00:58:24;;;;;;;7.20;3.53;;;;;;;;;;5111312;28;20383;-72
2022/08/25 01:00:52;;;;;;;7.20;3.50;;;;;;;;;;5111217;28;20028;-73
2022/08/25 01:03:19;;;;;;;7.65;3.88;;;;;;;;;;5111125;28;20028;-72
2022/08/25 01:05:46;;;;;;;13.10;4.35;;;;;;;;;;5110707;28;20028;-73
2022/08/25 01:11:08;;;;;;;7.38;4.07;;;;;;;;;;5111752;27;20450;-72
2022/08/25 01:13:37;;;;;;;7.72;3.78;;;;;;;;;;5111161;28;20027;-74
2022/08/25 01:18:59;;;;;;;7.25;3.63;;;;;;;;;;5112065;27;20900;-72
2022/08/25 01:26:16;;;;;;;6.18;3.38;;;;;;;;;;5111736;27;20393;-72
2022/08/25 01:32:12;;;;;;;7.00;3.53;;;;;;;;;;5111780;27;20396;-72
2022/08/25 01:35:07;;;;;;;7.82;3.30;;;;;;;;;;5111070;27;20397;-72
2022/08/25 01:37:34;;;;;;;8.23;3.90;;;;;;;;;;5109915;28;20024;-73
2022/08/25 01:40:00;;;;;;;6.45;3.33;;;;;;;;;;5111248;28;20030;-72
2022/08/25 01:46:15;;;;;;;7.25;3.42;;;;;;;;;;5111309;27;20426;-72
2022/08/25 01:48:41;;;;;;;6.68;3.50;;;;;;;;;;5110852;28;20141;-72
2022/08/25 01:51:07;;;;;;;6.32;3.28;;;;;;;;;;5111198;28;20030;-72
2022/08/25 01:56:12;;;;;;;6.55;3.60;;;;;;;;;;5152373;27;20390;-72
2022/08/25 01:58:40;;;;;;;6.78;3.33;;;;;;;;;;5152728;27;20047;-72
2022/08/25 02:01:08;;;;;;;6.35;3.33;;;;;;;;;;5153019;27;20019;-73
2022/08/25 02:04:20;;;;;;;5.75;3.63;;;;;;;;;;5111799;27;20392;-73
2022/08/25 02:14:39;;;;;;;6.95;3.63;;;;;;;;;;5051040;28;20419;-72
2022/08/25 02:17:05;;;;;;;5.82;3.65;;;;;;;;;;5050440;28;20116;-72
2022/08/25 02:19:31;;;;;;;7.03;3.38;;;;;;;;;;5051177;28;20514;-72
2022/08/25 02:21:58;;;;;;;6.80;3.67;;;;;;;;;;5050606;28;20040;-72
2022/08/25 02:24:58;;;;;;;7.75;4.22;;;;;;;;;;5111089;27;20414;-72
2022/08/25 02:27:25;;;;;;;6.80;3.80;;;;;;;;;;5111385;28;20407;-72
2022/08/25 02:29:51;;;;;;;8.30;4.05;;;;;;;;;;5110751;28;20081;-72
2022/08/25 02:32:17;;;;;;;7.50;3.95;;;;;;;;;;5111132;28;20077;-72
2022/08/25 02:34:43;;;;;;;7.57;4.18;;;;;;;;;;5111092;28;20024;-72
2022/08/25 02:37:09;;;;;;;7.82;4.35;;;;;;;;;;5110735;28;20365;-72
2022/08/25 02:39:35;;;;;;;10.15;4.22;;;;;;;;;;5111033;28;20084;-72
2022/08/25 02:42:02;;;;;;;8.40;4.70;;;;;;;;;;5110981;28;20020;-73
2022/08/25 02:44:28;;;;;;;12.23;5.40;;;;;;;;;;5110566;28;20027;-72
2022/08/25 02:47:11;;;;;;;10.52;4.82;;;;;;;;;;5111433;27;20381;-73
2022/08/25 02:49:37;;;;;;;8.30;4.90;;;;;;;;;;5111580;28;20021;-72
2022/08/25 02:52:04;;;;;;;7.15;4.45;;;;;;;;;;5111029;28;20026;-72
2022/08/25 02:54:30;;;;;;;10.07;4.80;;;;;;;;;;5111244;28;20081;-72
2022/08/25 02:56:56;;;;;;;7.35;4.13;;;;;;;;;;5111209;28;20024;-73
2022/08/25 02:59:22;;;;;;;9.18;4.63;;;;;;;;;;5110902;28;20577;-73
2022/08/25 03:01:48;;;;;;;9.80;4.47;;;;;;;;;;5111076;28;20456;-73
2022/08/25 03:07:48;;;;;;;7.90;4.72;;;;;;;;;;5112103;27;20396;-72
2022/08/25 03:11:16;;;;;;;9.70;5.18;;;;;;;;;;5111895;27;20545;-72
2022/08/25 03:16:44;;;;;;;8.82;5.50;;;;;;;;;;5173895;27;20122;-72
2022/08/25 03:19:10;;;;;;;10.18;5.25;;;;;;;;;;5152650;27;20027;-72
2022/08/25 03:21:37;;;;;;;11.32;5.88;;;;;;;;;;5152537;27;20029;-72
2022/08/25 03:28:32;;;;;;;10.48;6.55;;;;;;;;;;5110952;28;20035;-72
2022/08/25 03:32:08;;;;;;;11.18;5.63;;;;;;;;;;5111940;27;20927;-72
2022/08/25 03:34:35;;;;;;;9.32;5.70;;;;;;;;;;5111028;28;20472;-72
2022/08/25 03:37:01;;;;;;;10.65;6.20;;;;;;;;;;5111221;28;20020;-72
2022/08/25 03:42:30;;;;;;;12.82;6.50;;;;;;;;;;5110970;27;20451;-73
2022/08/25 03:47:09;;;;;;;16.70;9.98;;;;;;;;;;5111952;27;20919;-72
2022/08/25 03:49:35;;;;;;;18.90;12.70;;;;;;;;;;5111614;28;20099;-72
2022/08/25 03:52:01;;;;;;;24.83;15.82;;;;;;;;;;5111265;28;20019;-73
2022/08/25 03:54:27;;;;;;;25.77;15.88;;;;;;;;;;5110775;28;20020;-73
2022/08/25 03:56:54;;;;;;;21.15;15.63;;;;;;;;;;5111211;28;20384;-72
2022/08/25 03:59:20;;;;;;;17.45;10.30;;;;;;;;;;5111162;28;20028;-72
2022/08/25 04:02:09;;;;;;;15.77;9.18;;;;;;;;;;5111457;27;20392;-73
2022/08/25 04:06:46;;;;;;;17.55;8.73;;;;;;;;;;5111394;27;20903;-72
2022/08/25 04:09:12;;;;;;;17.23;10.23;;;;;;;;;;5109647;28;20024;-72
2022/08/25 04:11:39;;;;;;;17.98;11.93;;;;;;;;;;5111213;28;20031;-73
2022/08/25 04:14:05;;;;;;;28.02;15.68;;;;;;;;;;5111236;28;20468;-73
2022/08/25 04:17:27;;;;;;;27.73;16.70;;;;;;;;;;5110922;27;20465;-72
2022/08/25 04:19:54;;;;;;;25.15;16.83;;;;;;;;;;5109968;28;20442;-72
2022/08/25 04:22:21;;;;;;;24.92;16.70;;;;;;;;;;5109780;28;20387;-74
2022/08/25 04:25:06;;;;;;;25.90;16.85;;;;;;;;;;5111880;27;20400;-73
2022/08/25 04:27:32;;;;;;;25.67;17.30;;;;;;;;;;5110049;28;20404;-73
2022/08/25 04:29:58;;;;;;;25.98;16.52;;;;;;;;;;5109649;28;20396;-74
2022/08/25 04:33:02;;;;;;;25.15;16.77;;;;;;;;;;5111758;27;20389;-74
2022/08/25 04:35:29;;;;;;;21.52;15.27;;;;;;;;;;5111720;28;20035;-72
2022/08/25 04:37:55;;;;;;;23.00;14.55;;;;;;;;;;5110821;28;20470;-73
2022/08/25 04:40:22;;;;;;;23.58;16.23;;;;;;;;;;5111249;28;20036;-74
2022/08/25 04:42:48;;;;;;;27.63;16.58;;;;;;;;;;5111395;28;20091;-74
2022/08/25 04:45:15;;;;;;;23.13;15.10;;;;;;;;;;5110808;28;20012;-74
2022/08/25 04:47:41;;;;;;;27.27;16.73;;;;;;;;;;5111019;28;20024;-73
2022/08/25 04:50:48;;;;;;;26.90;16.73;;;;;;;;;;5111497;27;20426;-72
2022/08/25 04:53:15;;;;;;;25.83;16.02;;;;;;;;;;5111550;28;20060;-72
2022/08/25 04:55:42;;;;;;;25.23;17.75;;;;;;;;;;5111225;28;20090;-72
2022/08/25 04:59:08;;;;;;;24.30;15.80;;;;;;;;;;5088330;27;20505;-70
2022/08/25 05:02:42;;;;;;;27.00;17.63;;;;;;;;;;5111081;27;20427;-73
2022/08/25 05:06:06;;;;;;;28.85;19.60;;;;;;;;;;5070233;28;21045;-72
2022/08/25 05:11:44;;;;;;;24.83;17.33;;;;;;;;;;5110322;27;20476;-69
2022/08/25 05:14:13;;;;;;;23.42;17.38;;;;;;;;;;5111095;28;20111;-71
2022/08/25 05:16:39;;;;;;;24.27;17.55;;;;;;;;;;5107376;28;20024;-71
2022/08/25 05:19:06;;;;;;;26.30;18.02;;;;;;;;;;5119144;28;20388;-71
2022/08/25 05:21:33;;;;;;;29.42;19.05;;;;;;;;;;5103176;28;20051;-69
2022/08/25 05:24:00;;;;;;;29.40;19.10;;;;;;;;;;5104443;28;20441;-71
2022/08/25 05:26:57;;;;;;;31.50;19.98;;;;;;;;;;5068975;28;20768;-71
2022/08/25 05:29:23;;;;;;;28.23;19.70;;;;;;;;;;5070872;28;20043;-70
2022/08/25 05:31:49;;;;;;;28.67;20.08;;;;;;;;;;5070472;28;20016;-71
2022/08/25 05:37:20;;;;;;;25.25;17.27;;;;;;;;;;5122576;27;20120;-67
2022/08/25 05:39:47;;;;;;;31.42;20.08;;;;;;;;;;5109895;28;20537;-67
2022/08/25 05:42:13;;;;;;;29.52;19.20;;;;;;;;;;5108974;28;20046;-69
2022/08/25 05:44:39;;;;;;;29.58;19.70;;;;;;;;;;5107115;28;20516;-69
2022/08/25 05:47:06;;;;;;;28.25;18.60;;;;;;;;;;5095698;28;20093;-71
2022/08/25 05:49:32;;;;;;;28.40;18.92;;;;;;;;;;5093523;28;20016;-71
2022/08/25 05:51:58;;;;;;;26.73;18.85;;;;;;;;;;5088497;28;20538;-71
2022/08/25 05:57:00;;;;;;;26.17;18.60;;;;;;;;;;5107851;27;20117;-70
2022/08/25 06:04:38;;;;;;;26.30;17.27;;;;;;;;;;5104427;27;20443;-70
2022/08/25 06:07:04;;;;;;;27.98;19.27;;;;;;;;;;5100975;28;20024;-71
2022/08/25 06:11:57;;;;;;;34.10;17.00;;;;;;;;;;5070380;28;20473;-70
2022/08/25 06:15:17;;;;;;;63.15;20.38;;;;;;;;;;5110752;27;20424;-70
2022/08/25 06:17:43;;;;;;;28.88;18.73;;;;;;;;;;5110890;28;20024;-74
2022/08/25 06:20:25;;;;;;;36.28;17.90;;;;;;;;;;5110943;28;20039;-71
2022/08/25 06:23:27;;;;;;;35.47;18.50;;;;;;;;;;5110618;27;20401;-74
2022/08/25 06:26:37;;;;;;;31.38;17.35;;;;;;;;;;5110944;27;20434;-75
2022/08/25 06:29:04;;;;;;;24.00;17.45;;;;;;;;;;5108455;28;20514;-70
2022/08/25 06:33:54;;;;;;;29.48;18.15;;;;;;;;;;5108736;27;20423;-70
2022/08/25 06:36:20;;;;;;;27.52;17.25;;;;;;;;;;5108441;28;20396;-70
2022/08/25 06:38:47;;;;;;;31.42;18.13;;;;;;;;;;5107481;28;20028;-70
2022/08/25 06:41:15;;;;;;;27.50;17.13;;;;;;;;;;5108849;28;20054;-70
2022/08/25 06:43:41;;;;;;;37.58;17.60;;;;;;;;;;5108502;28;20357;-70
2022/08/25 06:46:09;;;;;;;27.77;17.65;;;;;;;;;;5108730;28;20024;-71
2022/08/25 06:48:36;;;;;;;31.70;17.20;;;;;;;;;;5108534;28;20031;-70
2022/08/25 06:51:05;;;;;;;25.80;15.70;;;;;;;;;;5106850;28;20088;-69
2022/08/25 06:53:31;;;;;;;27.13;15.40;;;;;;;;;;5106361;28;20031;-70
2022/08/25 06:55:58;;;;;;;27.92;15.77;;;;;;;;;;5106224;28;20032;-69
2022/08/25 06:59:17;;;;;;;21.15;14.00;;;;;;;;;;5085608;27;20459;-69
2022/08/25 07:01:43;;;;;;;25.63;15.05;;;;;;;;;;5076514;28;20028;-71
2022/08/25 07:04:09;;;;;;;28.52;14.52;;;;;;;;;;5069781;28;20597;-70
2022/08/25 07:06:36;;;;;;;20.73;13.55;;;;;;;;;;5070441;28;20071;-70
2022/08/25 07:09:04;;;;;;;21.85;14.45;;;;;;;;;;5085452;28;20028;-71
2022/08/25 07:12:39;;;;;;;27.80;16.75;;;;;;;;;;5106670;27;20426;-70
2022/08/25 07:15:05;;;;;;;24.27;15.73;;;;;;;;;;5107613;28;20032;-71
2022/08/25 07:17:32;;;;;;;22.45;15.35;;;;;;;;;;5105179;28;20024;-70
2022/08/25 07:19:58;;;;;;;22.50;14.65;;;;;;;;;;5105230;28;20032;-71
2022/08/25 07:22:24;;;;;;;24.17;15.32;;;;;;;;;;5098233;28;20024;-72
2022/08/25 07:24:50;;;;;;;22.88;16.40;;;;;;;;;;5100661;28;20031;-70
2022/08/25 07:27:16;;;;;;;23.88;14.75;;;;;;;;;;5090505;28;20029;-72
2022/08/25 07:30:00;;;;;;;23.70;15.07;;;;;;;;;;5106321;27;20412;-72
2022/08/25 07:35:13;;;;;;;21.80;14.23;;;;;;;;;;5102945;27;20421;-71
2022/08/25 07:36:24;;;;;;;22.58;14.18;;;;;;;;;;5092486;28;20032;-71
2022/08/25 07:40:34;;;;;;;26.52;14.77;;;;;;;;;;5108557;27;20116;-69
2022/08/25 07:43:03;;;;;;;25.58;16.48;;;;;;;;;;5088520;28;20028;-69
2022/08/25 07:50:49;;;;;;;21.73;14.18;;;;;;;;;;5173221;27;20401;-70
2022/08/25 07:53:16;;;;;;;26.33;15.10;;;;;;;;;;5173197;27;20034;-71
2022/08/25 07:55:57;;;;;;;24.88;14.98;;;;;;;;;;5070855;28;20782;-70
2022/08/25 07:58:23;;;;;;;22.50;13.93;;;;;;;;;;5070576;28;20078;-73
2022/08/25 08:00:51;;;;;;;23.33;14.98;;;;;;;;;;5068692;28;20479;-71
2022/08/25 08:03:19;;;;;;;24.98;15.43;;;;;;;;;;5070407;28;20376;-77
2022/08/25 08:10:33;;;;;;;29.58;16.73;;;;;;;;;;5131437;27;20375;-72
2022/08/25 08:12:59;;;;;;;24.88;15.48;;;;;;;;;;5108577;28;20031;-74
2022/08/25 08:15:25;;;;;;;20.50;14.45;;;;;;;;;;5093632;28;20107;-72
2022/08/25 08:17:52;;;;;;;23.02;14.20;;;;;;;;;;5094072;28;20474;-73
2022/08/25 08:20:19;;;;;;;25.65;14.48;;;;;;;;;;5086696;28;20025;-75
2022/08/25 08:22:45;;;;;;;25.00;14.82;;;;;;;;;;5092722;28;20408;-71
2022/08/25 08:25:14;;;;;;;24.33;14.35;;;;;;;;;;5093947;28;20628;-75
2022/08/25 08:29:39;;;;;;;26.13;13.77;;;;;;;;;;5066072;28;20438;-75
2022/08/25 08:32:06;;;;;;;23.38;13.93;;;;;;;;;;5068149;28;20575;-74
2022/08/25 08:36:37;;;;;;;25.95;15.50;;;;;;;;;;5110896;27;20393;-74
2022/08/25 08:39:03;;;;;;;24.67;15.27;;;;;;;;;;5109768;28;20441;-74
2022/08/25 08:42:41;;;;;;;30.25;13.48;;;;;;;;;;5064088;28;20442;-74
2022/08/25 08:45:16;;;;;;;30.17;14.45;;;;;;;;;;5070705;28;20105;-76
2022/08/25 08:47:42;;;;;;;21.65;14.05;;;;;;;;;;5070427;28;20071;-75
2022/08/25 08:50:27;;;;;;;19.90;14.82;;;;;;;;;;5041297;28;20017;-75
2022/08/25 08:52:59;;;;;;;20.83;12.63;;;;;;;;;;5045824;28;20367;-77
2022/08/25 08:55:28;;;;;;;22.33;12.98;;;;;;;;;;5030455;28;20040;-76
2022/08/25 08:57:56;;;;;;;20.75;14.13;;;;;;;;;;5029961;28;20034;-76
2022/08/25 09:00:22;;;;;;;23.10;13.52;;;;;;;;;;5030008;28;20030;-77
2022/08/25 09:03:29;;;;;;;24.23;14.35;;;;;;;;;;5109965;27;20796;-75
2022/08/25 09:05:57;;;;;;;22.88;13.40;;;;;;;;;;5110613;28;20027;-75
2022/08/25 09:08:23;;;;;;;25.13;14.52;;;;;;;;;;5107641;28;20081;-76
2022/08/25 09:10:55;;;;;;;23.10;12.70;;;;;;;;;;5105724;28;20024;-75
2022/08/25 09:13:55;;;;;;;23.55;13.65;;;;;;;;;;5101375;28;20024;-73
2022/08/25 09:19:17;;;;;;;20.08;12.88;;;;;;;;;;5109990;28;20035;-72
2022/08/25 09:22:02;;;;;;;19.90;12.75;;;;;;;;;;5110645;28;20035;-72
2022/08/25 09:24:47;;;;;;;22.20;12.50;;;;;;;;;;5111188;28;20024;-72
2022/08/25 09:27:19;;;;;;;24.13;13.93;;;;;;;;;;5111618;28;20051;-72
2022/08/25 09:31:37;;;;;;;21.02;12.77;;;;;;;;;;5173420;27;20114;-72
2022/08/25 09:34:05;;;;;;;22.02;12.43;;;;;;;;;;5152090;27;20431;-72
2022/08/25 09:37:35;;;;;;;21.58;12.73;;;;;;;;;;5111515;27;20393;-72
2022/08/25 09:40:01;;;;;;;28.15;12.65;;;;;;;;;;5110921;28;20024;-72
2022/08/25 09:44:29;;;;;;;16.98;11.20;;;;;;;;;;5111943;27;20409;-72
2022/08/25 09:47:00;;;;;;;24.38;12.18;;;;;;;;;;5110833;28;20027;-72
2022/08/25 09:49:36;;;;;;;28.03;13.60;;;;;;;;;;5111232;28;20047;-72
2022/08/25 09:52:21;;;;;;;21.02;11.52;;;;;;;;;;5109841;28;20081;-72
2022/08/25 09:54:49;;;;;;;15.90;10.18;;;;;;;;;;5110714;28;20487;-72
2022/08/25 09:57:35;;;;;;;17.27;11.05;;;;;;;;;;5111262;28;20020;-72
2022/08/25 10:00:14;;;;;;;15.93;10.07;;;;;;;;;;5110587;28;20434;-72
2022/08/25 10:03:24;;;;;;;18.80;11.25;;;;;;;;;;5111656;27;20416;-71
2022/08/25 10:05:59;;;;;;;16.02;10.50;;;;;;;;;;5111263;28;20472;-73
2022/08/25 10:08:25;;;;;;;23.35;11.63;;;;;;;;;;5110735;28;20024;-72
2022/08/25 10:10:54;;;;;;;16.52;10.85;;;;;;;;;;5111312;28;20089;-73
2022/08/25 10:14:18;;;;;;;19.75;10.05;;;;;;;;;;5111590;27;20457;-72
2022/08/25 10:16:45;;;;;;;17.90;10.25;;;;;;;;;;5111281;28;20024;-72
2022/08/25 10:19:14;;;;;;;16.23;9.32;;;;;;;;;;5111345;28;20030;-73
2022/08/25 10:21:41;;;;;;;16.92;9.73;;;;;;;;;;5110888;28;20484;-72
2022/08/25 10:24:08;;;;;;;17.50;8.70;;;;;;;;;;5111136;28;20032;-73
2022/08/25 10:26:44;;;;;;;13.95;8.70;;;;;;;;;;5110996;28;20035;-72
2022/08/25 10:29:25;;;;;;;16.50;10.20;;;;;;;;;;5110570;28;20543;-73
2022/08/25 10:31:56;;;;;;;21.73;10.00;;;;;;;;;;5110931;28;20458;-73
2022/08/25 10:34:44;;;;;;;20.65;9.57;;;;;;;;;;5110745;28;20024;-73
2022/08/25 10:37:11;;;;;;;17.17;8.90;;;;;;;;;;5110490;28;20020;-73
2022/08/25 10:39:43;;;;;;;12.60;8.27;;;;;;;;;;5110817;28;20027;-73
2022/08/25 10:42:09;;;;;;;;;;;;;;;;;;5110822;28;20031;-72
2022/08/25 10:47:45;;;;;;;17.95;10.35;;;;;;;;;;5110935;28;20111;-73
2022/08/25 10:50:14;;;;;;;17.42;8.05;;;;;;;;;;5106800;28;20144;-73
2022/08/25 10:52:55;;;;;;;14.50;8.98;;;;;;;;;;5102091;28;20023;-72
2022/08/25 10:55:34;;;;;;;15.98;8.70;;;;;;;;;;5103060;28;20107;-73
2022/08/25 10:58:19;;;;;;;21.55;9.15;;;;;;;;;;5110014;28;20028;-73
2022/08/25 11:00:54;;;;;;;18.17;9.60;;;;;;;;;;5110036;28;20106;-72
2022/08/25 11:03:28;;;;;;;14.82;9.00;;;;;;;;;;5109920;28;20031;-71
2022/08/25 11:06:04;;;;;;;22.10;9.40;;;;;;;;;;5110237;28;20027;-73
2022/08/25 11:09:00;;;;;;;15.32;8.43;;;;;;;;;;5108877;28;20024;-71
2022/08/25 11:11:38;;;;;;;18.73;9.68;;;;;;;;;;5101941;28;20090;-72
2022/08/25 11:14:30;;;;;;;14.60;8.70;;;;;;;;;;5104331;28;20055;-74
2022/08/25 11:17:05;;;;;;;18.23;8.63;;;;;;;;;;5106599;28;20434;-74
2022/08/25 11:19:34;;;;;;;22.63;9.02;;;;;;;;;;5105020;28;20032;-73
2022/08/25 11:22:12;;;;;;;16.70;8.85;;;;;;;;;;5109791;28;20352;-74
2022/08/25 11:24:38;;;;;;;20.05;9.07;;;;;;;;;;5101181;28;20024;-73
2022/08/25 11:27:06;;;;;;;19.17;8.32;;;;;;;;;;5096411;28;20039;-75
2022/08/25 11:29:35;;;;;;;18.90;8.43;;;;;;;;;;5094316;28;20020;-73
2022/08/25 11:32:02;;;;;;;19.52;8.50;;;;;;;;;;5093671;28;20035;-75
2022/08/25 11:34:32;;;;;;;14.75;7.22;;;;;;;;;;5094137;28;20055;-75
2022/08/25 11:37:06;;;;;;;15.20;7.20;;;;;;;;;;5093045;28;20039;-74
2022/08/25 11:39:55;;;;;;;13.27;6.47;;;;;;;;;;5092028;28;20028;-73
2022/08/25 11:42:41;;;;;;;13.48;7.45;;;;;;;;;;5084166;28;20427;-74
2022/08/25 11:45:07;;;;;;;18.73;8.32;;;;;;;;;;5094903;28;20020;-74
2022/08/25 11:47:54;;;;;;;17.42;7.53;;;;;;;;;;5093299;28;20081;-74
2022/08/25 11:50:23;;;;;;;14.77;6.43;;;;;;;;;;5094885;28;20028;-74
2022/08/25 11:52:56;;;;;;;16.00;7.70;;;;;;;;;;5095280;28;20020;-75
2022/08/25 11:55:26;;;;;;;20.83;10.02;;;;;;;;;;5095995;28;20038;-75
2022/08/25 11:58:12;;;;;;;15.55;7.78;;;;;;;;;;5095775;28;20024;-75
2022/08/25 12:00:42;;;;;;;14.43;8.27;;;;;;;;;;5095286;28;20077;-74
2022/08/25 12:03:27;;;;;;;18.83;9.05;;;;;;;;;;5095726;28;20095;-73
2022/08/25 12:06:13;;;;;;;16.58;8.60;;;;;;;;;;5095756;28;20032;-75
2022/08/25 12:08:48;;;;;;;22.35;8.85;;;;;;;;;;5095132;28;20111;-74
2022/08/25 12:11:34;;;;;;;15.85;8.05;;;;;;;;;;5095616;28;20480;-74
2022/08/25 12:14:19;;;;;;;22.88;9.02;;;;;;;;;;5094825;28;20044;-73
2022/08/25 12:16:54;;;;;;;25.63;9.05;;;;;;;;;;5095461;28;20016;-73
2022/08/25 12:19:26;;;;;;;19.25;8.48;;;;;;;;;;5095471;28;20433;-73
2022/08/25 12:21:52;;;;;;;;;;;;;;;;;;5094069;28;20020;-73
2022/08/25 12:24:41;;;;;;;19.77;9.00;;;;;;;;;;5095309;28;19911;-74
2022/08/25 12:27:25;;;;;;;22.60;9.38;;;;;;;;;;5087341;28;20400;-74
2022/08/25 12:29:55;;;;;;;20.50;8.60;;;;;;;;;;5094895;28;20103;-74
2022/08/25 12:33:00;;;;;;;28.20;10.32;;;;;;;;;;5095376;28;20039;-73
2022/08/25 12:35:28;;;;;;;36.65;11.43;;;;;;;;;;5015118;28;20053;-74
2022/08/25 12:37:54;;;;;;;31.85;10.25;;;;;;;;;;5032608;28;20029;-74
2022/08/25 12:40:37;;;;;;;41.47;11.88;;;;;;;;;;5063533;28;20092;-74
2022/08/25 12:43:22;;;;;;;36.45;10.77;;;;;;;;;;5094551;28;20028;-74
2022/08/25 12:46:14;;;;;;;28.85;10.38;;;;;;;;;;5095293;28;20035;-74
2022/08/25 12:48:43;;;;;;;52.22;10.82;;;;;;;;;;5094319;28;20056;-74
2022/08/25 12:51:16;;;;;;;28.10;9.48;;;;;;;;;;5094993;28;20023;-74
2022/08/25 12:53:47;;;;;;;24.25;10.05;;;;;;;;;;5094952;28;20039;-73
2022/08/25 12:56:16;;;;;;;54.05;11.98;;;;;;;;;;5092966;28;20028;-74
2022/08/25 12:58:49;;;;;;;54.80;12.18;;;;;;;;;;5094593;28;20028;-74
2022/08/25 13:01:24;;;;;;;37.97;10.30;;;;;;;;;;5094715;28;20509;-74
2022/08/25 13:04:25;;;;;;;17.88;7.57;;;;;;;;;;5094114;28;20024;-74
2022/08/25 13:06:54;;;;;;;30.33;9.10;;;;;;;;;;5032065;28;20083;-74
2022/08/25 13:09:39;;;;;;;28.70;8.88;;;;;;;;;;5083139;28;20059;-74
2022/08/25 13:12:17;;;;;;;25.17;8.40;;;;;;;;;;5093701;28;20054;-74
2022/08/25 13:14:44;;;;;;;16.02;7.30;;;;;;;;;;5094491;28;20069;-74
2022/08/25 13:17:11;;;;;;;19.20;7.72;;;;;;;;;;5093948;28;20498;-74
2022/08/25 13:19:37;;;;;;;17.90;7.72;;;;;;;;;;5094410;28;20024;-74
2022/08/25 13:22:12;;;;;;;20.30;8.68;;;;;;;;;;5094460;28;20024;-74
2022/08/25 13:24:42;;;;;;;23.17;8.95;;;;;;;;;;5094205;28;20051;-74
2022/08/25 13:27:17;;;;;;;20.83;7.40;;;;;;;;;;5094488;28;20121;-74
2022/08/25 13:29:58;;;;;;;22.23;7.50;;;;;;;;;;5092829;28;20383;-74
2022/08/25 13:32:27;;;;;;;17.77;7.28;;;;;;;;;;5093663;28;20490;-74
2022/08/25 13:35:06;;;;;;;19.00;7.10;;;;;;;;;;5094048;28;20023;-74
2022/08/25 13:37:32;;;;;;;15.60;6.30;;;;;;;;;;5094189;28;20107;-74
2022/08/25 13:40:08;;;;;;;14.73;7.13;;;;;;;;;;5093542;28;20072;-75
2022/08/25 13:42:36;;;;;;;21.15;7.85;;;;;;;;;;5093861;28;20065;-73
2022/08/25 13:45:06;;;;;;;28.10;9.05;;;;;;;;;;5093720;28;20420;-74
2022/08/25 13:47:37;;;;;;;15.70;5.85;;;;;;;;;;5093573;28;20092;-73
2022/08/25 13:50:19;;;;;;;17.73;6.75;;;;;;;;;;5093715;28;20024;-73
2022/08/25 13:52:49;;;;;;;20.58;7.03;;;;;;;;;;5093194;28;20078;-72
2022/08/25 13:55:20;;;;;;;19.02;7.65;;;;;;;;;;5093729;28;20024;-73
2022/08/25 13:57:47;;;;;;;14.75;6.63;;;;;;;;;;5093653;28;20024;-73
2022/08/25 14:00:13;;;;;;;19.42;6.85;;;;;;;;;;5093262;28;20495;-73
2022/08/25 14:02:39;;;;;;;19.58;5.88;;;;;;;;;;5093878;28;20035;-73
2022/08/25 14:05:06;;;;;;;14.25;4.82;;;;;;;;;;5093671;28;20099;-74
2022/08/25 14:07:32;;;;;;;18.95;7.25;;;;;;;;;;5093120;28;20023;-74
2022/08/25 14:10:01;;;;;;;18.88;6.70;;;;;;;;;;5095133;28;20069;-75
2022/08/25 14:12:36;;;;;;;11.85;5.75;;;;;;;;;;5093236;28;20040;-73
2022/08/25 14:15:05;;;;;;;11.90;4.40;;;;;;;;;;5093163;28;20095;-73
2022/08/25 14:17:31;;;;;;;13.43;3.65;;;;;;;;;;5093580;28;20484;-73
2022/08/25 14:19:58;;;;;;;15.85;2.85;;;;;;;;;;5093516;28;20043;-73
2022/08/25 14:22:24;;;;;;;15.32;3.08;;;;;;;;;;5092963;28;20020;-73
2022/08/25 14:24:51;;;;;;;16.00;3.17;;;;;;;;;;5093539;28;20024;-73
2022/08/25 14:27:17;;;;;;;16.33;6.20;;;;;;;;;;5092951;28;20028;-73
2022/08/25 14:29:44;;;;;;;16.95;3.30;;;;;;;;;;5093250;28;20044;-73
2022/08/25 14:32:11;;;;;;;9.00;2.67;;;;;;;;;;5093397;28;20032;-72
2022/08/25 14:34:38;;;;;;;17.45;3.45;;;;;;;;;;5092963;28;20028;-72
2022/08/25 14:37:31;;;;;;;8.70;2.90;;;;;;;;;;5093319;28;20024;-74
2022/08/25 14:39:57;;;;;;;15.02;3.28;;;;;;;;;;5090591;28;20040;-74
2022/08/25 14:42:25;;;;;;;13.73;3.20;;;;;;;;;;5092799;28;20507;-73
2022/08/25 14:44:51;;;;;;;16.60;3.35;;;;;;;;;;5093235;28;20101;-73
2022/08/25 14:47:19;;;;;;;11.90;2.67;;;;;;;;;;5093147;28;20103;-73
2022/08/25 14:49:46;;;;;;;10.85;3.33;;;;;;;;;;5092969;28;20016;-73
2022/08/25 14:52:18;;;;;;;12.68;3.40;;;;;;;;;;5093272;28;20036;-73
2022/08/25 14:54:44;;;;;;;19.85;4.38;;;;;;;;;;5093495;28;20024;-74
2022/08/25 14:57:10;;;;;;;11.52;3.17;;;;;;;;;;5092830;28;20531;-74
2022/08/25 14:59:37;;;;;;;14.35;2.72;;;;;;;;;;5094718;28;20028;-73
2022/08/25 15:02:07;;;;;;;9.60;2.28;;;;;;;;;;5096927;28;20021;-74
2022/08/25 15:04:34;;;;;;;8.35;2.40;;;;;;;;;;5096517;28;20077;-75
2022/08/25 15:09:06;;;;;;;9.02;2.60;;;;;;;;;;5095517;28;20028;-75
2022/08/25 15:09:47;;;;;;;15.57;2.70;;;;;;;;;;5096290;28;20111;-74
2022/08/25 15:12:13;;;;;;;15.73;2.70;;;;;;;;;;5096766;28;20040;-74
2022/08/25 15:14:39;;;;;;;12.40;2.75;;;;;;;;;;5096752;28;20020;-74
2022/08/25 15:17:07;;;;;;;11.30;2.88;;;;;;;;;;5096400;28;20044;-74
2022/08/25 15:19:33;;;;;;;14.30;3.30;;;;;;;;;;5096674;28;20024;-74
2022/08/25 15:21:59;;;;;;;7.80;1.88;;;;;;;;;;5097038;28;20104;-74
2022/08/25 15:24:26;;;;;;;11.85;2.95;;;;;;;;;;5096128;28;20020;-74
2022/08/25 15:26:54;;;;;;;13.68;2.83;;;;;;;;;;5096482;28;20068;-74
2022/08/25 15:29:22;;;;;;;10.82;2.70;;;;;;;;;;5096421;28;20070;-74
2022/08/25 15:31:48;;;;;;;9.23;2.83;;;;;;;;;;5096092;28;20483;-74
2022/08/25 15:34:14;;;;;;;10.10;2.10;;;;;;;;;;5096188;28;20051;-74
2022/08/25 15:36:41;;;;;;;12.63;2.67;;;;;;;;;;5095020;28;20107;-74
2022/08/25 15:39:07;;;;;;;9.35;2.90;;;;;;;;;;5095867;28;20026;-73
2022/08/25 15:41:35;;;;;;;9.35;2.65;;;;;;;;;;5096097;28;20028;-74
2022/08/25 15:44:01;;;;;;;8.02;2.80;;;;;;;;;;5096161;28;20418;-74
2022/08/25 15:46:29;;;;;;;10.90;3.28;;;;;;;;;;5095667;28;20074;-74
2022/08/25 15:48:58;;;;;;;10.20;2.40;;;;;;;;;;5095927;28;20024;-74
2022/08/25 15:51:25;;;;;;;13.93;3.35;;;;;;;;;;5096565;28;20024;-74
2022/08/25 15:53:51;;;;;;;19.45;4.45;;;;;;;;;;5095314;28;20408;-74
2022/08/25 15:56:18;;;;;;;11.02;2.60;;;;;;;;;;5095941;28;20472;-74
2022/08/25 15:58:47;;;;;;;15.32;2.78;;;;;;;;;;5095366;28;20059;-73
2022/08/25 16:01:21;;;;;;;16.73;2.72;;;;;;;;;;5095851;28;20468;-74
2022/08/25 16:03:47;;;;;;;10.02;2.53;;;;;;;;;;5096120;28;20526;-73
2022/08/25 16:06:13;;;;;;;13.82;2.97;;;;;;;;;;5095344;28;20030;-73
2022/08/25 16:08:39;;;;;;;12.18;3.08;;;;;;;;;;5094280;28;20084;-72
2022/08/25 16:11:06;;;;;;;14.13;3.50;;;;;;;;;;5095460;28;20023;-73
2022/08/25 16:13:33;;;;;;;10.07;2.25;;;;;;;;;;5094919;28;20101;-73
2022/08/25 16:15:59;;;;;;;12.00;2.30;;;;;;;;;;5095460;28;20097;-74
2022/08/25 16:18:25;;;;;;;12.05;2.22;;;;;;;;;;5095373;28;20034;-73
2022/08/25 16:20:52;;;;;;;12.90;3.10;;;;;;;;;;5095025;28;20051;-73
2022/08/25 16:23:18;;;;;;;11.30;3.05;;;;;;;;;;5095430;28;20507;-73
2022/08/25 16:25:46;;;;;;;11.27;3.38;;;;;;;;;;5095232;28;20020;-73
2022/08/25 16:28:13;;;;;;;14.50;4.43;;;;;;;;;;5095014;28;20069;-76
2022/08/25 16:30:57;;;;;;;13.43;5.57;;;;;;;;;;5095182;28;20032;-74
2022/08/25 16:33:23;;;;;;;21.65;6.75;;;;;;;;;;5093780;28;20032;-73
2022/08/25 16:35:49;;;;;;;16.35;7.47;;;;;;;;;;5094806;28;20020;-74
2022/08/25 16:38:16;;;;;;;16.30;7.22;;;;;;;;;;5094994;28;20046;-75
2022/08/25 16:40:43;;;;;;;16.45;7.55;;;;;;;;;;5093833;28;20081;-75
2022/08/25 16:43:09;;;;;;;19.02;9.98;;;;;;;;;;5094598;28;20425;-74
2022/08/25 16:45:36;;;;;;;23.23;9.18;;;;;;;;;;5094959;28;20028;-74